createdAt,value
2023-01-10T00:02:13.641Z,45.30
2023-01-10T00:04:41.629Z,45.00
2023-01-10T00:07:10.258Z,45.30
2023-01-10T00:09:38.153Z,46.50
2023-01-10T00:12:24.038Z,46.30
2023-01-10T00:14:52.624Z,46.90
2023-01-10T00:17:22.034Z,46.60
2023-01-10T00:19:50.107Z,47.60
2023-01-10T00:22:25.050Z,47.10
2023-01-10T00:24:53.299Z,47.00
2023-01-10T00:27:23.772Z,46.60
2023-01-10T00:29:53.095Z,46.20
2023-01-10T00:32:22.583Z,46.10
2023-01-10T00:34:50.481Z,46.40
2023-01-10T00:37:18.426Z,46.90
2023-01-10T00:39:46.373Z,46.80
2023-01-10T00:42:31.967Z,48.00
2023-01-10T00:44:59.897Z,48.90
2023-01-10T00:47:29.196Z,49.80
2023-01-10T00:49:57.104Z,48.40
2023-01-10T00:52:25.046Z,48.60
2023-01-10T00:54:52.978Z,48.60
2023-01-10T00:57:21.039Z,49.20
2023-01-10T00:59:48.972Z,49.60
2023-01-10T01:02:16.976Z,50.00
2023-01-10T01:04:46.317Z,49.60
2023-01-10T01:07:14.487Z,49.60
2023-01-10T01:09:56.524Z,49.40
2023-01-10T01:12:24.478Z,49.40
2023-01-10T01:14:52.418Z,50.10
2023-01-10T01:17:20.504Z,49.60
2023-01-10T01:19:50.782Z,50.20
2023-01-10T01:22:18.692Z,49.90
2023-01-10T01:24:46.628Z,50.00
2023-01-10T01:27:14.563Z,50.20
2023-01-10T01:29:43.633Z,50.10
2023-01-10T01:32:12.071Z,49.80
2023-01-10T01:34:40.254Z,49.80
2023-01-10T01:37:09.518Z,49.30
2023-01-10T01:39:37.497Z,49.30
2023-01-10T01:42:06.197Z,49.60
2023-01-10T01:44:37.414Z,49.90
2023-01-10T01:47:08.971Z,49.30
2023-01-10T01:49:41.336Z,49.00
2023-01-10T01:52:18.118Z,48.50
2023-01-10T01:54:46.102Z,48.10
2023-01-10T01:57:18.452Z,48.80
2023-01-10T01:59:49.313Z,48.10
2023-01-10T02:02:21.821Z,47.20
2023-01-10T02:04:54.357Z,46.60
2023-01-10T02:07:26.091Z,46.40
2023-01-10T02:09:57.610Z,46.80
2023-01-10T02:12:27.179Z,47.50
2023-01-10T02:14:55.843Z,47.50
2023-01-10T02:17:23.746Z,47.00
2023-01-10T02:19:54.137Z,48.10
2023-01-10T02:23:07.662Z,49.40
2023-01-10T02:26:23.203Z,50.00
2023-01-10T02:29:21.777Z,49.90
2023-01-10T02:32:12.949Z,50.50
2023-01-10T02:34:49.851Z,50.90
2023-01-10T02:37:25.744Z,51.10
2023-01-10T02:40:00.854Z,50.10
2023-01-10T02:42:36.642Z,50.30
2023-01-10T02:45:10.989Z,50.60
2023-01-10T02:47:41.620Z,49.60
2023-01-10T02:50:31.015Z,50.00
2023-01-10T02:53:02.375Z,50.00
2023-01-10T02:55:41.824Z,49.50
2023-01-10T02:58:21.320Z,49.20
2023-01-10T03:00:58.621Z,49.70
2023-01-10T03:03:36.923Z,49.30
2023-01-10T03:06:19.868Z,49.40
2023-01-10T03:08:54.641Z,48.70
2023-01-10T03:11:39.959Z,49.60
2023-01-10T03:14:14.964Z,49.60
2023-01-10T03:16:46.946Z,49.80
2023-01-10T03:19:20.725Z,49.50
2023-01-10T03:21:52.620Z,48.70
2023-01-10T03:24:26.221Z,48.50
2023-01-10T03:26:58.300Z,49.20
2023-01-10T03:29:32.493Z,49.00
2023-01-10T03:32:05.490Z,48.50
2023-01-10T03:34:36.171Z,48.60
2023-01-10T03:37:11.122Z,48.50
2023-01-10T03:39:50.634Z,47.80
2023-01-10T03:42:24.507Z,49.10
2023-01-10T03:45:04.879Z,48.80
2023-01-10T03:47:38.133Z,49.20
2023-01-10T03:50:11.363Z,49.20
2023-01-10T03:52:42.664Z,49.10
2023-01-10T03:55:13.177Z,48.20
2023-01-10T03:57:46.666Z,48.20
2023-01-10T04:00:16.215Z,47.80
2023-01-10T04:02:44.203Z,48.00
2023-01-10T04:05:13.736Z,47.30
2023-01-10T04:07:41.677Z,47.50
2023-01-10T04:10:10.973Z,48.00
2023-01-10T04:12:38.874Z,48.60
2023-01-10T04:15:09.756Z,47.40
2023-01-10T04:17:37.682Z,47.50
2023-01-10T04:20:06.440Z,47.50
2023-01-10T04:22:35.761Z,47.50
2023-01-10T04:25:03.694Z,48.40
2023-01-10T04:27:31.635Z,47.60
2023-01-10T04:29:59.614Z,47.50
2023-01-10T04:32:27.530Z,47.00
2023-01-10T04:34:55.451Z,47.70
2023-01-10T04:37:23.398Z,48.70
2023-01-10T04:39:52.635Z,49.00
2023-01-10T04:42:22.671Z,48.90
2023-01-10T04:44:50.645Z,48.00
2023-01-10T04:47:18.555Z,48.20
2023-01-10T04:49:46.526Z,48.30
2023-01-10T04:52:14.501Z,49.00
2023-01-10T04:54:42.428Z,48.60
2023-01-10T04:57:11.684Z,48.30
2023-01-10T04:59:39.574Z,48.00
2023-01-10T05:02:07.784Z,47.40
2023-01-10T05:04:35.748Z,46.90
2023-01-10T05:07:03.680Z,46.50
2023-01-10T05:09:31.593Z,47.20
2023-01-10T05:11:59.658Z,47.50
2023-01-10T05:14:28.872Z,47.20
2023-01-10T05:16:56.977Z,47.20
2023-01-10T05:19:25.028Z,46.80
2023-01-10T05:21:53.285Z,48.40
2023-01-10T05:24:21.780Z,48.10
2023-01-10T05:26:49.758Z,47.90
2023-01-10T05:29:17.725Z,48.00
2023-01-10T05:31:47.102Z,48.10
2023-01-10T05:34:15.042Z,48.00
2023-01-10T05:36:45.777Z,47.50
2023-01-10T05:39:13.990Z,47.40
2023-01-10T05:41:41.943Z,47.00
2023-01-10T05:44:10.379Z,48.00
2023-01-10T05:46:38.306Z,49.10
2023-01-10T05:49:07.800Z,49.50
2023-01-10T05:51:36.216Z,49.20
2023-01-10T05:54:04.283Z,49.50
2023-01-10T05:56:32.290Z,48.90
2023-01-10T05:59:14.204Z,49.10
2023-01-10T06:01:48.677Z,47.80
2023-01-10T06:04:18.312Z,49.00
2023-01-10T06:06:46.322Z,48.80
2023-01-10T06:09:14.256Z,49.20
2023-01-10T06:11:42.147Z,49.30
2023-01-10T06:14:10.230Z,48.70
2023-01-10T06:16:38.193Z,48.60
2023-01-10T06:19:06.234Z,48.10
2023-01-10T06:21:35.476Z,49.10
2023-01-10T06:24:07.180Z,48.90
2023-01-10T06:26:35.092Z,48.80
2023-01-10T06:29:03.154Z,49.00
2023-01-10T06:31:31.236Z,48.90
2023-01-10T06:33:59.177Z,48.70
2023-01-10T06:36:27.103Z,48.30
2023-01-10T06:38:57.603Z,47.60
2023-01-10T06:41:25.661Z,46.90
2023-01-10T06:43:53.597Z,47.00
2023-01-10T06:46:21.710Z,47.80
2023-01-10T06:48:49.672Z,47.60
2023-01-10T06:51:20.219Z,47.70
2023-01-10T06:53:48.604Z,47.20
2023-01-10T06:56:17.861Z,46.70
2023-01-10T06:58:48.885Z,46.40
2023-01-10T07:01:18.926Z,46.50
2023-01-10T07:03:47.425Z,48.30
2023-01-10T07:06:15.975Z,49.40
2023-01-10T07:08:46.009Z,50.70
2023-01-10T07:11:15.727Z,50.50
2023-01-10T07:13:45.072Z,50.60
2023-01-10T07:16:14.927Z,51.70
2023-01-10T07:18:44.205Z,51.20
2023-01-10T07:21:13.028Z,51.40
2023-01-10T07:23:41.290Z,49.90
2023-01-10T07:26:10.809Z,49.60
2023-01-10T07:28:38.824Z,48.80
2023-01-10T07:31:08.303Z,49.10
2023-01-10T07:33:36.250Z,49.20
2023-01-10T07:36:05.094Z,49.30
2023-01-10T07:38:33.040Z,50.70
2023-01-10T07:41:03.393Z,49.60
2023-01-10T07:43:31.954Z,49.60
2023-01-10T07:45:59.997Z,50.60
2023-01-10T07:48:29.668Z,50.90
2023-01-10T07:51:03.069Z,51.60
2023-01-10T07:53:31.432Z,51.20
2023-01-10T07:56:00.699Z,50.00
2023-01-10T07:58:29.444Z,50.50
2023-01-10T08:00:59.388Z,51.00
2023-01-10T08:03:29.843Z,50.70
2023-01-10T08:06:01.940Z,51.00
2023-01-10T08:08:32.595Z,52.90
2023-01-10T08:11:02.502Z,52.90
2023-01-10T08:13:31.222Z,51.80
2023-01-10T08:15:59.729Z,50.50
2023-01-10T08:18:29.019Z,49.70
2023-01-10T08:20:56.968Z,50.30
2023-01-10T08:23:25.171Z,50.50
2023-01-10T08:25:54.224Z,49.70
2023-01-10T08:28:22.333Z,49.50
2023-01-10T08:30:55.316Z,50.80
2023-01-10T08:33:27.384Z,51.50
2023-01-10T08:35:56.655Z,51.50
2023-01-10T08:38:25.009Z,50.70
2023-01-10T08:40:52.920Z,49.70
2023-01-10T08:43:20.850Z,49.00
2023-01-10T08:45:50.189Z,47.70
2023-01-10T08:48:18.222Z,48.20
2023-01-10T08:50:46.129Z,48.80
2023-01-10T08:53:15.472Z,50.00
2023-01-10T08:55:45.441Z,49.70
2023-01-10T08:58:13.377Z,49.20
2023-01-10T09:00:44.359Z,49.40
2023-01-10T09:03:12.340Z,49.20
2023-01-10T09:05:40.506Z,49.20
2023-01-10T09:08:09.843Z,49.10
2023-01-10T09:10:39.097Z,48.90
2023-01-10T09:13:07.091Z,49.10
2023-01-10T09:15:37.011Z,49.40
2023-01-10T09:18:06.511Z,49.30
2023-01-10T09:20:36.159Z,48.50
2023-01-10T09:23:09.712Z,49.10
2023-01-10T09:25:39.516Z,48.70
2023-01-10T09:28:07.872Z,49.50
2023-01-10T09:30:36.369Z,50.80
2023-01-10T09:33:05.284Z,50.20
2023-01-10T09:35:35.944Z,49.20
2023-01-10T09:38:05.696Z,48.80
2023-01-10T09:40:46.788Z,49.50
2023-01-10T09:43:23.459Z,50.30
2023-01-10T09:46:00.584Z,50.10
2023-01-10T09:48:38.111Z,49.80
2023-01-10T09:51:19.874Z,50.50
2023-01-10T09:53:48.761Z,51.50
2023-01-10T09:56:19.486Z,52.40
2023-01-10T09:58:48.243Z,50.90
2023-01-10T10:01:19.878Z,51.50
2023-01-10T10:03:55.707Z,52.30
2023-01-10T10:06:27.732Z,53.20
2023-01-10T10:08:57.493Z,51.90
2023-01-10T10:11:46.728Z,51.50
2023-01-10T10:14:28.327Z,51.40
2023-01-10T10:17:13.580Z,52.00
2023-01-10T10:19:56.391Z,52.20
2023-01-10T10:22:34.263Z,53.10
2023-01-10T10:25:15.229Z,53.20
2023-01-10T10:28:06.356Z,53.40
2023-01-10T10:30:46.596Z,52.60
2023-01-10T10:33:29.110Z,53.10
2023-01-10T10:36:00.834Z,54.00
2023-01-10T10:38:32.920Z,53.80
2023-01-10T10:41:02.394Z,54.20
2023-01-10T10:43:35.461Z,53.80
2023-01-10T10:46:06.845Z,53.20
2023-01-10T10:48:39.557Z,53.90
2023-01-10T10:51:13.705Z,52.70
2023-01-10T10:53:41.606Z,52.90
2023-01-10T10:56:15.717Z,55.20
2023-01-10T10:58:49.133Z,56.40
2023-01-10T11:01:17.963Z,55.10
2023-01-10T11:03:48.562Z,54.70
2023-01-10T11:06:19.210Z,55.20
2023-01-10T11:08:49.094Z,55.90
2023-01-10T11:11:22.867Z,56.30
2023-01-10T11:13:56.477Z,56.30
2023-01-10T11:16:28.094Z,54.50
2023-01-10T11:19:17.664Z,54.20
2023-01-10T11:21:50.924Z,53.60
2023-01-10T11:24:23.976Z,54.30
2023-01-10T11:26:52.906Z,55.30
2023-01-10T11:29:27.546Z,54.60
2023-01-10T11:31:58.852Z,53.50
2023-01-10T11:34:30.635Z,52.90
2023-01-10T11:37:01.133Z,53.50
2023-01-10T11:39:31.169Z,54.50
2023-01-10T11:42:14.272Z,54.30
2023-01-10T11:44:43.561Z,53.70
2023-01-10T11:47:14.705Z,54.00
2023-01-10T11:49:47.286Z,53.90
2023-01-10T11:52:26.252Z,54.10
2023-01-10T11:54:58.383Z,54.40
2023-01-10T11:57:29.195Z,54.60
2023-01-10T12:00:02.283Z,54.10
2023-01-10T12:02:42.782Z,53.30
2023-01-10T12:05:14.196Z,53.00
2023-01-10T12:08:00.170Z,52.50
2023-01-10T12:10:30.059Z,53.60
2023-01-10T12:13:01.855Z,52.00
2023-01-10T12:15:34.473Z,51.60
2023-01-10T12:18:05.881Z,52.30
2023-01-10T12:20:37.945Z,53.00
2023-01-10T12:23:11.879Z,53.00
2023-01-10T12:25:42.091Z,53.00
2023-01-10T12:28:17.514Z,53.00
2023-01-10T12:30:50.621Z,52.80
2023-01-10T12:33:23.390Z,52.90
2023-01-10T12:35:57.785Z,52.30
2023-01-10T12:38:50.617Z,52.90
2023-01-10T12:41:44.903Z,53.60
2023-01-10T12:44:19.786Z,53.70
2023-01-10T12:47:06.579Z,53.80
2023-01-10T12:49:42.239Z,52.60
2023-01-10T12:52:15.978Z,53.80
2023-01-10T12:54:48.242Z,54.20
2023-01-10T12:57:25.007Z,53.90
2023-01-10T12:59:55.886Z,52.30
2023-01-10T13:02:29.498Z,51.20
2023-01-10T13:05:01.628Z,51.20
2023-01-10T13:07:35.154Z,51.40
2023-01-10T13:10:06.079Z,50.70
2023-01-10T13:12:39.125Z,50.40
2023-01-10T13:15:13.176Z,50.40
2023-01-10T13:17:46.240Z,50.50
2023-01-10T13:20:37.031Z,49.90
2023-01-10T13:23:21.629Z,49.80
2023-01-10T13:25:57.988Z,49.30
2023-01-10T13:28:28.354Z,49.90
2023-01-10T13:31:00.912Z,49.30
2023-01-10T13:33:32.345Z,48.70
2023-01-10T13:36:11.239Z,48.80
2023-01-10T13:38:51.479Z,49.10
2023-01-10T13:41:49.212Z,50.00
2023-01-10T13:44:19.640Z,50.80
2023-01-10T13:46:51.564Z,51.60
2023-01-10T13:49:40.836Z,51.70
2023-01-10T13:52:39.223Z,51.90
2023-01-10T13:55:40.050Z,50.30
2023-01-10T13:58:58.811Z,50.00
2023-01-10T14:01:46.975Z,49.70
2023-01-10T14:04:22.975Z,49.60
2023-01-10T14:06:56.701Z,47.90
2023-01-10T14:09:41.161Z,48.10
2023-01-10T14:12:23.282Z,48.50
2023-01-10T14:14:54.909Z,49.40
2023-01-10T14:17:26.315Z,48.90
2023-01-10T14:20:08.598Z,48.30
2023-01-10T14:22:39.896Z,47.30
2023-01-10T14:25:18.386Z,47.60
2023-01-10T14:27:48.534Z,47.30
2023-01-10T14:30:20.114Z,47.20
2023-01-10T14:32:52.018Z,47.20
2023-01-10T14:35:23.251Z,46.90
2023-01-10T14:37:56.131Z,47.60
2023-01-10T14:40:30.837Z,47.80
2023-01-10T14:43:02.536Z,47.60
2023-01-10T14:45:40.735Z,47.90
2023-01-10T14:48:27.211Z,47.80
2023-01-10T14:51:08.035Z,48.30
2023-01-10T14:53:37.305Z,48.50
2023-01-10T14:56:17.588Z,47.80
2023-01-10T14:58:45.534Z,47.10
2023-01-10T15:01:23.484Z,47.70
2023-01-10T15:03:52.219Z,47.10
2023-01-10T15:06:20.457Z,47.20
2023-01-10T15:08:58.646Z,47.40
2023-01-10T15:11:28.831Z,47.50
2023-01-10T15:14:03.435Z,47.50
2023-01-10T15:16:32.822Z,46.80
2023-01-10T15:19:01.003Z,47.30
2023-01-10T15:21:43.311Z,47.80
2023-01-10T15:24:42.814Z,47.60
2023-01-10T15:27:16.290Z,48.20
2023-01-10T15:29:46.926Z,47.50
2023-01-10T15:32:25.154Z,47.60
2023-01-10T15:34:55.379Z,47.90
2023-01-10T15:37:33.919Z,48.10
2023-01-10T15:40:06.858Z,48.50
2023-01-10T15:42:35.299Z,48.40
2023-01-10T15:45:23.808Z,48.60
2023-01-10T15:47:55.115Z,49.20
2023-01-10T15:50:27.026Z,49.90
2023-01-10T15:52:57.130Z,50.10
2023-01-10T15:55:41.559Z,50.10
2023-01-10T15:58:19.877Z,49.90
2023-01-10T16:00:52.263Z,49.40
2023-01-10T16:03:26.713Z,49.80
2023-01-10T16:05:58.668Z,49.80
2023-01-10T16:08:31.523Z,49.20
2023-01-10T16:11:03.455Z,49.10
2023-01-10T16:13:32.606Z,50.00
2023-01-10T16:16:03.246Z,50.90
2023-01-10T16:18:34.878Z,51.30
2023-01-10T16:21:06.217Z,51.10
2023-01-10T16:23:37.627Z,50.80
2023-01-10T16:26:09.992Z,51.70
2023-01-10T16:28:38.086Z,50.60
2023-01-10T16:31:11.211Z,50.70
2023-01-10T16:33:39.150Z,50.20
2023-01-10T16:36:15.923Z,50.20
2023-01-10T16:38:47.485Z,49.70
2023-01-10T16:41:36.946Z,50.70
2023-01-10T16:44:04.899Z,52.10
2023-01-10T16:46:32.894Z,51.80
2023-01-10T16:49:06.454Z,52.00
2023-01-10T16:51:34.643Z,52.40
2023-01-10T16:54:02.568Z,52.20
2023-01-10T16:56:32.012Z,52.00
2023-01-10T16:59:00.210Z,52.00
2023-01-10T17:01:33.400Z,51.60
2023-01-10T17:04:01.621Z,50.50
2023-01-10T17:06:29.642Z,50.70
2023-01-10T17:08:57.552Z,50.10
2023-01-10T17:11:30.222Z,49.80
2023-01-10T17:14:00.535Z,49.70
2023-01-10T17:16:30.116Z,49.10
2023-01-10T17:18:58.101Z,49.50
2023-01-10T17:21:26.699Z,49.90
2023-01-10T17:23:54.638Z,50.50
2023-01-10T17:26:23.400Z,50.00
2023-01-10T17:28:51.338Z,50.30
2023-01-10T17:31:20.698Z,50.10
2023-01-10T17:33:49.884Z,50.10
2023-01-10T17:36:19.425Z,49.80
2023-01-10T17:38:47.620Z,49.30
2023-01-10T17:41:15.905Z,49.50
2023-01-10T17:43:43.820Z,48.90
2023-01-10T17:46:12.558Z,49.20
2023-01-10T17:48:41.882Z,49.50
2023-01-10T17:51:10.296Z,49.30
2023-01-10T17:53:38.220Z,49.20
2023-01-10T17:56:07.727Z,49.40
2023-01-10T17:58:36.076Z,49.10
2023-01-10T18:01:04.885Z,48.50
2023-01-10T18:03:32.850Z,49.10
2023-01-10T18:06:02.897Z,49.30
2023-01-10T18:08:31.983Z,50.30
2023-01-10T18:11:00.980Z,52.00
2023-01-10T18:13:31.121Z,52.80
2023-01-10T18:16:00.414Z,52.80
2023-01-10T18:18:31.075Z,53.10
2023-01-10T18:21:02.061Z,52.90
2023-01-10T18:23:32.733Z,52.00
2023-01-10T18:26:02.706Z,51.90
2023-01-10T18:28:40.797Z,51.40
2023-01-10T18:31:12.096Z,50.60
2023-01-10T18:33:40.516Z,49.40
2023-01-10T18:36:12.089Z,49.20
2023-01-10T18:38:41.424Z,48.50
2023-01-10T18:41:09.392Z,48.30
2023-01-10T18:43:37.332Z,48.00
2023-01-10T18:46:07.852Z,47.40
2023-01-10T18:48:35.803Z,47.90
2023-01-10T18:51:05.000Z,48.30
2023-01-10T18:53:33.191Z,49.00
2023-01-10T18:56:04.971Z,49.20
2023-01-10T18:58:34.726Z,49.50
2023-01-10T19:01:11.690Z,49.70
2023-01-10T19:03:40.525Z,49.90
2023-01-10T19:06:11.478Z,50.20
2023-01-10T19:08:40.054Z,50.80
2023-01-10T19:11:14.302Z,50.80
2023-01-10T19:13:42.915Z,51.40
2023-01-10T19:16:15.601Z,50.40
2023-01-10T19:18:44.466Z,50.70
2023-01-10T19:21:15.816Z,50.20
2023-01-10T19:23:44.525Z,50.70
2023-01-10T19:26:14.394Z,51.20
2023-01-10T19:28:42.759Z,50.80
2023-01-10T19:31:15.927Z,50.80
2023-01-10T19:33:46.040Z,50.40
2023-01-10T19:36:14.380Z,51.10
2023-01-10T19:38:42.521Z,51.70
2023-01-10T19:41:10.782Z,51.20
2023-01-10T19:43:40.075Z,51.70
2023-01-10T19:46:09.057Z,52.30
2023-01-10T19:48:38.204Z,51.80
2023-01-10T19:51:10.775Z,52.50
2023-01-10T19:53:42.037Z,53.00
2023-01-10T19:56:10.586Z,53.80
2023-01-10T19:58:40.662Z,53.70
2023-01-10T20:01:09.803Z,53.50
2023-01-10T20:03:38.602Z,53.00
2023-01-10T20:06:09.038Z,53.70
2023-01-10T20:08:37.018Z,53.30
2023-01-10T20:11:06.048Z,53.80
2023-01-10T20:13:38.615Z,53.30
2023-01-10T20:16:11.954Z,53.10
2023-01-10T20:18:40.101Z,52.50
2023-01-10T20:21:13.268Z,52.10
2023-01-10T20:23:42.607Z,53.00
2023-01-10T20:26:13.591Z,53.00
2023-01-10T20:28:42.624Z,53.30
2023-01-10T20:31:14.898Z,53.80
2023-01-10T20:33:42.885Z,53.60
2023-01-10T20:36:13.568Z,53.70
2023-01-10T20:38:41.593Z,53.90
2023-01-10T20:41:12.925Z,55.00
2023-01-10T20:43:40.900Z,55.40
2023-01-10T20:46:12.116Z,55.90
2023-01-10T20:48:41.575Z,56.20
2023-01-10T20:51:12.903Z,56.50
2023-01-10T20:53:41.018Z,56.60
2023-01-10T20:56:14.203Z,56.40
2023-01-10T20:58:42.334Z,57.20
2023-01-10T21:01:24.910Z,57.20
2023-01-10T21:04:01.292Z,57.70
2023-01-10T21:06:29.323Z,57.30
2023-01-10T21:08:57.308Z,57.40
2023-01-10T21:11:25.434Z,56.60
2023-01-10T21:13:56.353Z,57.30
2023-01-10T21:16:26.116Z,55.90
2023-01-10T21:18:54.114Z,54.90
2023-01-10T21:21:24.131Z,54.20
2023-01-10T21:23:54.801Z,52.50
2023-01-10T21:26:23.104Z,51.40
2023-01-10T21:28:51.103Z,50.00
2023-01-10T21:31:22.148Z,49.30
2023-01-10T21:33:51.528Z,48.60
2023-01-10T21:36:19.483Z,47.20
2023-01-10T21:38:47.817Z,47.70
2023-01-10T21:41:39.064Z,47.60
2023-01-10T21:44:08.226Z,48.00
2023-01-10T21:46:36.251Z,47.80
2023-01-10T21:49:06.317Z,49.50
2023-01-10T21:51:34.276Z,50.50
2023-01-10T21:54:02.236Z,51.10
2023-01-10T21:56:30.151Z,51.80
2023-01-10T21:58:58.081Z,52.50
2023-01-10T22:01:25.964Z,51.60
2023-01-10T22:03:55.618Z,51.60
2023-01-10T22:06:25.931Z,51.60
2023-01-10T22:08:54.439Z,50.10
2023-01-10T22:11:22.427Z,49.60
2023-01-10T22:13:51.828Z,49.00
2023-01-10T22:16:19.980Z,49.40
2023-01-10T22:18:48.978Z,48.90
2023-01-10T22:21:19.566Z,48.60
2023-01-10T22:23:49.026Z,49.80
2023-01-10T22:26:17.314Z,50.10
2023-01-10T22:28:45.265Z,49.50
2023-01-10T22:31:13.588Z,48.70
2023-01-10T22:33:42.714Z,47.70
2023-01-10T22:36:15.110Z,46.70
2023-01-10T22:38:43.262Z,46.00
2023-01-10T22:41:15.120Z,46.20
2023-01-10T22:43:43.353Z,46.90
2023-01-10T22:46:15.350Z,47.00
2023-01-10T22:48:43.712Z,46.40
2023-01-10T22:51:14.228Z,45.50
2023-01-10T22:53:42.630Z,45.10
2023-01-10T22:56:12.787Z,44.90
2023-01-10T22:58:42.229Z,45.00
2023-01-10T23:01:10.211Z,45.20
2023-01-10T23:03:38.679Z,45.00
2023-01-10T23:06:06.731Z,45.10
2023-01-10T23:08:35.085Z,44.80
2023-01-10T23:11:03.492Z,44.60
2023-01-10T23:13:36.193Z,45.20
2023-01-10T23:16:06.646Z,45.00
2023-01-10T23:18:36.832Z,45.30
2023-01-10T23:21:05.288Z,45.80
2023-01-10T23:23:33.297Z,46.20
2023-01-10T23:26:02.268Z,46.50
2023-01-10T23:28:32.505Z,45.90
2023-01-10T23:31:00.588Z,45.40
2023-01-10T23:33:29.224Z,45.10
2023-01-10T23:35:57.357Z,44.80
2023-01-10T23:38:25.702Z,44.20
2023-01-10T23:40:53.841Z,44.20
2023-01-10T23:43:21.859Z,44.00
2023-01-10T23:45:51.385Z,44.00
2023-01-10T23:48:19.922Z,43.70
2023-01-10T23:50:49.178Z,43.50
2023-01-10T23:53:17.965Z,43.40
2023-01-10T23:55:46.097Z,43.50
2023-01-10T23:58:15.278Z,43.90
